CheckWX is a tool to help pilots better visualize weather data.  It is not intended as a substitute for an official pre-flight weather briefing.

11:20:23 UTC

KLEE METAR
Leesburg International Airport
Leesburg, Florida, USA
Current

27 mins ago

KLEE 261053Z AUTO 00000KT 10SM CLR 08/06 A3010 RMK AO2 SLP192 T00780056
Observed
Jan-26 @ 10:53 UTC
Visibility
10 SM
Flight Rules
VFR
Cloud Levels
  • Clear skies
Temperature
C / 46°F
Dewpoint
C / 43°F
Humidity
87%
Altimeter
30.1" Hg
Pressure
1019.32 hPa
Previous

1 hour ago

KLEE 260953Z AUTO 00000KT 10SM CLR 08/05 A3011 RMK AO2 SLP194 T00780050
Observed
Jan-26 @ 09:53 UTC
Visibility
10 SM
Flight Rules
VFR
Cloud Levels
  • Clear skies
Temperature
C / 46°F
Dewpoint
C / 41°F
Humidity
82%
Altimeter
30.11" Hg
Pressure
1019.62 hPa
Previous

2 hours ago

KLEE 260853Z AUTO 31004KT 10SM CLR 08/06 A3012 RMK AO2 SLP198 T00830056 58007
Observed
Jan-26 @ 08:53 UTC
Wind
  • 310° at 4 KTS
Visibility
10 SM
Flight Rules
VFR
Cloud Levels
  • Clear skies
Temperature
C / 46°F
Dewpoint
C / 43°F
Humidity
87%
Altimeter
30.12" Hg
Pressure
1020.02 hPa